Schneifelwetter: Wetterstation Hallschlag, 537 m . NN
Wetterdaten: Mittwoch, 11.03.2009
Datum Zeit Temp. A. Temp. 2 Feuchte A. Luftdruck Regen Wind Richtung Richtung Sonnenschein Helligkeit T Regen Taupunkt Windchill
11.03.2009 00:10 1,7 C 1,4 C 95 % 1011 hPa 0,0 l/m 16,1 km/h (3 Bft) W67.5 280 0 min 0 lux 0,00 min 1,0 C -5,5 C
11.03.2009 00:25 1,5 C 1,4 C 96 % 1011 hPa 0,0 l/m 14,2 km/h (3 Bft) W22.5 260 0 min 0 lux 0,00 min 0,9 C -4,7 C
11.03.2009 00:40 1,4 C 1,2 C 96 % 1011 hPa 0,0 l/m 18,3 km/h (3 Bft) W45 270 0 min 0 lux 0,00 min 0,8 C -7,0 C
11.03.2009 00:55 1,2 C 1,0 C 95 % 1012 hPa 0,0 l/m 20,0 km/h (4 Bft) W45 275 0 min 0 lux 0,00 min 0,5 C -8,1 C
11.03.2009 01:10 1,1 C 0,8 C 94 % 1012 hPa 0,0 l/m 34,0 km/h (5 Bft) W-NW45 290 0 min 0 lux 0,00 min 0,2 C -13,0 C
11.03.2009 01:25 1,0 C 0,7 C 94 % 1012 hPa 0,0 l/m 21,8 km/h (4 Bft) W-NW67.5 285 0 min 0 lux 0,00 min 0,1 C -9,1 C
11.03.2009 01:40 0,9 C 0,6 C 95 % 1012 hPa 0,0 l/m 13,6 km/h (3 Bft) W45 280 0 min 0 lux 0,00 min 0,2 C -5,0 C
11.03.2009 01:55 0,7 C 0,4 C 95 % 1013 hPa 0,0 l/m 14,3 km/h (3 Bft) W45 275 0 min 0 lux 0,00 min -0,0 C -5,7 C
11.03.2009 02:10 0,6 C 0,3 C 95 % 1013 hPa 0,0 l/m 21,8 km/h (4 Bft) W22.5 270 0 min 0 lux 0,00 min -0,1 C -9,6 C
11.03.2009 02:25 0,6 C 0,3 C 95 % 1013 hPa 0,0 l/m 17,4 km/h (3 Bft) W-NW45 285 0 min 0 lux 0,00 min -0,1 C -7,6 C
11.03.2009 02:40 0,5 C 0,2 C 95 % 1013 hPa 0,0 l/m 13,2 km/h (3 Bft) W45 275 0 min 0 lux 0,00 min -0,2 C -5,2 C
11.03.2009 02:55 0,7 C 0,4 C 95 % 1013 hPa 0,0 l/m 19,2 km/h (3 Bft) W45 265 0 min 0 lux 0,00 min -0,0 C -8,4 C
11.03.2009 03:10 0,6 C 0,3 C 95 % 1013 hPa 0,0 l/m 16,2 km/h (3 Bft) W67.5 275 0 min 0 lux 0,00 min -0,1 C -6,9 C
11.03.2009 03:25 0,5 C 0,0 C 95 % 1013 hPa 0,0 l/m 22,8 km/h (4 Bft) W67.5 275 0 min 0 lux 0,00 min -0,2 C -10,2 C
11.03.2009 03:40 0,3 C 0,1 C 95 % 1013 hPa 0,0 l/m 13,3 km/h (3 Bft) W-NW67.5 290 0 min 0 lux 0,00 min -0,4 C -5,6 C
11.03.2009 03:55 0,5 C 0,2 C 95 % 1014 hPa 0,0 l/m 15,8 km/h (3 Bft) W-NW45 285 0 min 0 lux 0,00 min -0,2 C -6,8 C
11.03.2009 04:10 0,4 C 0,2 C 95 % 1014 hPa 0,0 l/m 17,8 km/h (3 Bft) W22.5 275 0 min 0 lux 0,00 min -0,3 C -8,0 C
11.03.2009 04:25 0,3 C -0,1 C 95 % 1014 hPa 0,0 l/m 18,9 km/h (3 Bft) W-NW45 285 0 min 0 lux 0,00 min -0,4 C -8,7 C
11.03.2009 04:40 0,1 C -0,5 C 95 % 1014 hPa 0,0 l/m 20,8 km/h (4 Bft) W67.5 280 0 min 0 lux 0,00 min -0,6 C -9,9 C
11.03.2009 04:55 -0,2 C -0,6 C 95 % 1014 hPa 0,0 l/m 13,3 km/h (3 Bft) W-NW45 285 0 min 0 lux 0,00 min -0,9 C -6,1 C
11.03.2009 05:10 0,0 C -0,3 C 96 % 1014 hPa 0,0 l/m 16,7 km/h (3 Bft) W45 275 0 min 0 lux 0,00 min -0,6 C -8,0 C
11.03.2009 05:25 0,1 C -0,3 C 97 % 1015 hPa 0,0 l/m 15,1 km/h (3 Bft) W-NW45 285 0 min 0 lux 0,00 min -0,3 C -6,9 C
11.03.2009 05:40 0,3 C -0,2 C 97 % 1015 hPa 0,0 l/m 23,7 km/h (4 Bft) W22.5 280 0 min 0 lux 0,00 min -0,1 C -10,8 C
11.03.2009 05:55 0,3 C -0,2 C 96 % 1015 hPa 0,0 l/m 20,3 km/h (4 Bft) W22.5 275 0 min 0 lux 0,00 min -0,3 C -9,4 C
11.03.2009 06:10 0,2 C -0,1 C 95 % 1015 hPa 0,0 l/m 17,0 km/h (3 Bft) W45 280 0 min 0 lux 0,00 min -0,5 C -7,9 C
11.03.2009 06:25 0,2 C -0,3 C 95 % 1015 hPa 0,0 l/m 17,4 km/h (3 Bft) W22.5 265 0 min 0 lux 0,00 min -0,5 C -8,1 C
11.03.2009 06:40 0,2 C -0,2 C 96 % 1015 hPa 0,0 l/m 11,0 km/h (2 Bft) W-NW22.5 285 0 min 41 lux 0,00 min -0,4 C -4,0 C
11.03.2009 06:55 0,2 C -0,2 C 96 % 1016 hPa 0,0 l/m 11,6 km/h (2 Bft) W-NW45 295 0 min 577 lux 0,00 min -0,4 C -4,5 C
11.03.2009 07:10 0,1 C -0,5 C 96 % 1016 hPa 0,0 l/m 12,3 km/h (3 Bft) W22.5 270 0 min 1,79 klux 0,00 min -0,5 C -5,1 C
11.03.2009 07:25 0,1 C -0,4 C 96 % 1016 hPa 0,0 l/m 13,3 km/h (3 Bft) W22.5 260 0 min 6,07 klux 0,00 min -0,5 C -5,8 C
11.03.2009 07:40 0,2 C -0,2 C 97 % 1016 hPa 0,0 l/m 12,0 km/h (2 Bft) W22.5 270 0 min 3,14 klux 0,00 min -0,2 C -4,8 C
11.03.2009 08:01 0,5 C 0,0 C 97 % 1016 hPa 0,0 l/m 21,1 km/h (4 Bft) W-NW45 285 0 min 4,10 klux 0,00 min 0,1 C -9,5 C
11.03.2009 08:16 0,7 C 0,2 C 97 % 1017 hPa 0,0 l/m 11,5 km/h (2 Bft) W22.5 265 0 min 5,65 klux 0,00 min 0,3 C -3,8 C
11.03.2009 08:31 0,7 C 0,4 C 96 % 1017 hPa 0,0 l/m 11,5 km/h (2 Bft) W-NW 295 0 min 6,02 klux 0,00 min 0,1 C -3,8 C
11.03.2009 08:46 1,1 C 0,6 C 96 % 1017 hPa 0,0 l/m 19,2 km/h (3 Bft) W45 280 15 min 31,0 klux 0,00 min 0,5 C -7,8 C
11.03.2009 09:01 1,2 C 0,7 C 96 % 1017 hPa 0,3 l/m 15,5 km/h (3 Bft) W45 270 0 min 14,1 klux 15,00 min 0,6 C -5,8 C
11.03.2009 09:16 1,4 C 1,0 C 96 % 1017 hPa 0,0 l/m 14,0 km/h (3 Bft) W22.5 280 0 min 11,1 klux 0,00 min 0,8 C -4,7 C
11.03.2009 09:30 1,6 C 1,4 C 95 % 1018 hPa 0,0 l/m 17,4 km/h (3 Bft) W45 275 0 min 25,6 klux 0,00 min 0,9 C -6,3 C
11.03.2009 09:46 2,3 C 2,6 C 94 % 1018 hPa 0,3 l/m 19,6 km/h (3 Bft) W22.5 270 16 min 53,9 klux 16,00 min 1,4 C -6,5 C
11.03.2009 10:01 2,2 C 2,6 C 93 % 1018 hPa 0,0 l/m 21,0 km/h (4 Bft) W-NW45 285 0 min 11,6 klux 0,00 min 1,2 C -7,2 C
11.03.2009 10:16 2,4 C 2,8 C 92 % 1018 hPa 0,0 l/m 23,1 km/h (4 Bft) W-NW45 290 0 min 24,6 klux 0,00 min 1,2 C -7,8 C
11.03.2009 10:31 2,4 C 2,7 C 92 % 1019 hPa 0,0 l/m 25,5 km/h (4 Bft) W-NW45 290 0 min 20,6 klux 0,00 min 1,2 C -8,6 C
11.03.2009 10:46 2,5 C 3,1 C 91 % 1019 hPa 0,0 l/m 26,4 km/h (4 Bft) W-NW45 295 15 min 39,5 klux 0,00 min 1,2 C -8,8 C
11.03.2009 11:01 3,1 C 4,1 C 90 % 1019 hPa 0,0 l/m 21,4 km/h (4 Bft) W45 270 15 min 38,7 klux 0,00 min 1,6 C -6,2 C
11.03.2009 11:16 3,1 C 4,4 C 91 % 1019 hPa 0,0 l/m 25,5 km/h (4 Bft) W67.5 265 15 min 68,5 klux 0,00 min 1,8 C -7,7 C
11.03.2009 11:31 3,4 C 5,2 C 88 % 1019 hPa 0,0 l/m 24,5 km/h (4 Bft) W-NW67.5 295 15 min 68,6 klux 0,00 min 1,6 C -6,9 C
11.03.2009 11:46 3,3 C 5,1 C 88 % 1019 hPa 0,0 l/m 24,0 km/h (4 Bft) W67.5 275 15 min 35,4 klux 0,00 min 1,5 C -6,9 C
11.03.2009 12:01 3,6 C 5,4 C 91 % 1020 hPa 0,0 l/m 18,0 km/h (3 Bft) NW45 305 15 min 74,4 klux 0,00 min 2,3 C -4,1 C
11.03.2009 12:16 4,0 C 6,2 C 88 % 1020 hPa 0,0 l/m 18,2 km/h (3 Bft) W-NW45 295 15 min 51,6 klux 0,00 min 2,2 C -3,7 C
11.03.2009 12:31 3,2 C 4,8 C 89 % 1020 hPa 0,0 l/m 20,3 km/h (4 Bft) W45 280 0 min 10,6 klux 0,00 min 1,6 C -5,6 C
11.03.2009 12:46 3,4 C 4,3 C 91 % 1020 hPa 0,0 l/m 12,5 km/h (3 Bft) W22.5 260 15 min 35,0 klux 0,00 min 2,1 C -1,4 C
11.03.2009 13:01 4,1 C 5,5 C 91 % 1020 hPa 0,0 l/m 15,1 km/h (3 Bft) W22.5 260 15 min 38,0 klux 0,00 min 2,8 C -2,1 C
11.03.2009 13:15 4,5 C 6,0 C 89 % 1020 hPa 0,0 l/m 9,9 km/h (2 Bft) W22.5 260 14 min 30,5 klux 0,00 min 2,8 C 1,6 C
11.03.2009 13:31 4,3 C 5,7 C 86 % 1020 hPa 0,3 l/m 15,1 km/h (3 Bft) W22.5 280 0 min 26,6 klux 16,00 min 2,2 C -1,8 C
11.03.2009 13:46 4,1 C 5,3 C 88 % 1021 hPa 0,0 l/m 15,3 km/h (3 Bft) W45 270 0 min 18,3 klux 0,00 min 2,3 C -2,2 C
11.03.2009 14:01 4,3 C 5,3 C 88 % 1021 hPa 0,0 l/m 6,9 km/h (2 Bft) W22.5 265 15 min 32,0 klux 0,00 min 2,5 C 3,9 C
11.03.2009 14:16 4,0 C 4,8 C 86 % 1021 hPa 0,0 l/m 20,0 km/h (4 Bft) N-NW45 340 0 min 13,2 klux 0,00 min 1,9 C -4,5 C
11.03.2009 14:31 3,9 C 4,9 C 89 % 1021 hPa 0,3 l/m 10,8 km/h (2 Bft) W-NW22.5 285 15 min 28,7 klux 15,00 min 2,3 C 0,3 C
11.03.2009 14:46 4,4 C 5,1 C 88 % 1021 hPa 0,0 l/m 12,0 km/h (2 Bft) W45 270 0 min 23,1 klux 0,00 min 2,6 C 0,1 C
11.03.2009 15:00 4,3 C 5,1 C 86 % 1021 hPa 0,0 l/m 20,1 km/h (4 Bft) W22.5 280 0 min 23,0 klux 0,00 min 2,2 C -4,1 C
11.03.2009 15:16 4,3 C 5,0 C 83 % 1021 hPa 0,0 l/m 19,3 km/h (3 Bft) W-NW22.5 285 0 min 16,8 klux 0,00 min 1,7 C -3,8 C
11.03.2009 15:31 4,4 C 5,2 C 86 % 1021 hPa 0,0 l/m 14,8 km/h (3 Bft) W22.5 270 0 min 19,5 klux 0,00 min 2,3 C -1,5 C
11.03.2009 15:46 4,4 C 5,3 C 85 % 1021 hPa 0,0 l/m 21,2 km/h (4 Bft) W-NW22.5 285 0 min 20,7 klux 0,00 min 2,1 C -4,4 C
11.03.2009 16:01 4,3 C 5,0 C 84 % 1021 hPa 0,0 l/m 18,5 km/h (3 Bft) W22.5 260 0 min 11,9 klux 0,00 min 1,8 C -3,4 C
11.03.2009 16:16 4,2 C 5,1 C 86 % 1021 hPa 0,0 l/m 8,5 km/h (2 Bft) W-SW 255 0 min 17,5 klux 0,00 min 2,1 C 2,3 C
11.03.2009 16:31 4,3 C 5,3 C 85 % 1021 hPa 0,0 l/m 12,2 km/h (2 Bft) W 260 0 min 20,1 klux 0,00 min 2,0 C -0,2 C
11.03.2009 16:46 4,1 C 5,1 C 85 % 1021 hPa 0,0 l/m 16,3 km/h (3 Bft) W22.5 270 0 min 15,7 klux 0,00 min 1,8 C -2,7 C
11.03.2009 17:01 4,2 C 5,1 C 86 % 1021 hPa 0,0 l/m 12,8 km/h (3 Bft) W-SW 250 0 min 12,2 klux 0,00 min 2,1 C -0,7 C
11.03.2009 17:16 4,1 C 4,8 C 86 % 1021 hPa 0,0 l/m 9,2 km/h (2 Bft) W 260 0 min 8,82 klux 0,00 min 2,0 C 1,7 C
11.03.2009 17:31 3,9 C 4,3 C 86 % 1021 hPa 0,0 l/m 6,5 km/h (2 Bft) W 260 0 min 4,86 klux 0,00 min 1,8 C 3,8 C
11.03.2009 17:46 3,6 C 3,8 C 87 % 1021 hPa 0,0 l/m 10,2 km/h (2 Bft) W 260 0 min 6,01 klux 0,00 min 1,6 C 0,4 C
11.03.2009 18:01 3,4 C 3,1 C 87 % 1021 hPa 0,0 l/m 12,1 km/h (2 Bft) W-SW 255 0 min 5,16 klux 0,00 min 1,4 C -1,2 C
11.03.2009 18:16 2,8 C 2,1 C 87 % 1022 hPa 0,0 l/m 3,7 km/h (1 Bft) W-SW 255 0 min 3,99 klux 0,00 min 0,9 C 2,8 C
11.03.2009 18:31 2,0 C 1,1 C 88 % 1021 hPa 0,0 l/m 0,0 km/h (0 Bft) W-SW 255 0 min 1,40 klux 0,00 min 0,2 C 2,0 C
11.03.2009 18:45 1,3 C 0,1 C 89 % 1021 hPa 0,0 l/m 2,5 km/h (1 Bft) W-SW 255 0 min 427 lux 0,00 min -0,3 C 1,3 C
11.03.2009 19:01 0,6 C -0,5 C 89 % 1022 hPa 0,0 l/m 0,0 km/h (0 Bft) W-SW 255 0 min 75 lux 0,00 min -1,0 C 0,6 C
11.03.2009 19:16 0,1 C -1,1 C 91 % 1022 hPa 0,0 l/m 0,0 km/h (0 Bft) W-SW 255 0 min 13 lux 0,00 min -1,2 C 0,1 C
11.03.2009 19:31 -0,3 C -1,4 C 91 % 1022 hPa 0,0 l/m 4,0 km/h (1 Bft) W-SW 255 0 min 0 lux 0,00 min -1,6 C -0,3 C
11.03.2009 19:46 -0,8 C -2,1 C 91 % 1022 hPa 0,0 l/m 2,6 km/h (1 Bft) W-SW 255 0 min 0 lux 0,00 min -2,1 C -0,8 C
11.03.2009 20:01 -1,1 C -2,3 C 92 % 1022 hPa 0,0 l/m 0,0 km/h (0 Bft) W-SW 255 0 min 0 lux 0,00 min -2,2 C -1,1 C
11.03.2009 20:16 -1,5 C -2,7 C 92 % 1022 hPa 0,0 l/m 0,0 km/h (0 Bft) W-SW 255 0 min 0 lux 0,00 min -2,6 C -1,5 C
11.03.2009 20:31 -1,8 C -3,0 C 93 % 1022 hPa 0,0 l/m 0,0 km/h (0 Bft) W-SW 255 0 min 0 lux 0,00 min -2,8 C -1,8 C
11.03.2009 20:46 -1,9 C -3,3 C 94 % 1022 hPa 0,0 l/m 0,0 km/h (0 Bft) W-SW 255 0 min 0 lux 0,00 min -2,7 C -1,9 C
11.03.2009 21:01 -2,1 C -3,6 C 94 % 1022 hPa 0,0 l/m 0,0 km/h (0 Bft) W-SW 255 0 min 0 lux 0,00 min -2,9 C -2,1 C
11.03.2009 21:16 -2,2 C -3,7 C 95 % 1022 hPa 0,0 l/m 0,0 km/h (0 Bft) W-SW 255 0 min 0 lux 0,00 min -2,9 C -2,2 C
11.03.2009 21:31 -2,4 C -4,0 C 95 % 1022 hPa 0,0 l/m 0,0 km/h (0 Bft) W-SW 255 0 min 0 lux 0,00 min -3,1 C -2,4 C
11.03.2009 21:46 -2,6 C -4,2 C 95 % 1022 hPa 0,0 l/m 0,0 km/h (0 Bft) W-SW 255 0 min 0 lux 0,00 min -3,3 C -2,6 C
11.03.2009 22:01 -2,6 C -4,3 C 95 % 1022 hPa 0,0 l/m 0,0 km/h (0 Bft) W-SW 255 0 min 0 lux 0,00 min -3,3 C -2,6 C
11.03.2009 22:15 -2,7 C -4,2 C 95 % 1022 hPa 0,0 l/m 0,0 km/h (0 Bft) W-SW 255 0 min 0 lux 0,00 min -3,4 C -2,7 C
11.03.2009 22:31 -2,8 C -4,2 C 95 % 1022 hPa 0,0 l/m 0,0 km/h (0 Bft) W-SW 255 0 min 0 lux 0,00 min -3,5 C -2,8 C
11.03.2009 22:46 -2,9 C -4,6 C 95 % 1022 hPa 0,0 l/m 0,0 km/h (0 Bft) W-SW 255 0 min 0 lux 0,00 min -3,6 C -2,9 C
11.03.2009 23:01 -3,0 C -4,2 C 96 % 1022 hPa 0,0 l/m 0,0 km/h (0 Bft) W-SW 255 0 min 0 lux 0,00 min -3,5 C -3,0 C
11.03.2009 23:16 -2,8 C -3,9 C 96 % 1022 hPa 0,0 l/m 0,0 km/h (0 Bft) W-SW 255 0 min 0 lux 0,00 min -3,3 C -2,8 C
11.03.2009 23:31 -2,4 C -3,5 C 97 % 1022 hPa 0,0 l/m 0,0 km/h (0 Bft) W-SW 255 0 min 0 lux 0,00 min -2,8 C -2,4 C
11.03.2009 23:46 -2,2 C -2,8 C 97 % 1023 hPa 0,0 l/m 0,0 km/h (0 Bft) W-SW 255 0 min 0 lux 0,00 min -2,6 C -2,2 C
_ Min-Zeit 23:01 22:46 15:16 00:10 - 18:31 - - - - - 22:46 01:10
Minimum _ -3,0 C -4,6 C 83 % 1011 hPa - 0,0 km/h (0 Bft) - - - - - -3,6 C -13,0 C
_ Max-Zeit 13:15 12:16 05:25 23:46 09:01 01:10 - - 09:46 12:01 09:46 13:15 14:01
Maximum _ 4,5 C 6,2 C 97 % 1023 hPa 0,3 l/m 34,0 km/h
W-NW (5 Bft)
- - 16 min 74,4 klux 16,00 min 2,8 C 3,9 C
Durchschnitt _ 1,2 C 1,1 C 92 % 1018 hPa #1,2 l/m 12,9 km/h (3 Bft) W - #3:30 h 11,0 klux #1:02 h 0,1 C -4,2 C